»·PEaware :: SKY58 KHII-KPSP

SKY58 :: KHII-KPSP

FLIGHT INFORMATION

Flight Status: Arrived
Operator:
Sky High Charters
More flights by this operator :: More flights under this callsign
Pilot: John M. (9732)
Aircraft: BEECH AIRCRAFT BARON
(BE58)
More flights by this aircraft type
Origin: KHII Lake Havasu City
United States
Destination: KPSP Palm Springs Intl
United States
More flights between these airports :: More routes between these airports
Route: +EED CLOWD1
File this flight plan on PilotEdge
Remarks: 2ND leg of SKYHIGH #8 Cannot bring up LAX CTR on 134.65
Altitude:
(Current/Filed)
10,000ft
Speed:
(Current/Filed)
150kts
Departed: 14-Sep-19 07:25 PM
Arrived: 14-Sep-19 08:27 PM
Distance/Time
Traveled:
115nm/1:02
Distance/Time
To Go:
Arrived

Flight Plot

Page will automatically refresh every two minutes.


Map Options




Map Legend


Flown Route
Filed Route
Departure Airport
Arrival Airport
Navaid (VOR, NDB)
Fix

Horizontal Profiles

Position Reports

Time Latitude Longitude Heading Altitude Ground
Speed
14-Sep-19 18:41 34.570379 -114.361265 61 747ft 0kts
14-Sep-19 18:42 34.570379 -114.361265 61 747ft 0kts
14-Sep-19 18:43 34.570379 -114.361265 61 747ft 0kts
14-Sep-19 18:44 34.570379 -114.361265 61 747ft 0kts
14-Sep-19 18:45 34.570379 -114.361265 61 747ft 0kts
14-Sep-19 18:46 34.570379 -114.361265 61 747ft 0kts
14-Sep-19 18:47 34.570379 -114.361265 61 747ft 0kts
14-Sep-19 18:48 34.570379 -114.361265 61 747ft 0kts
14-Sep-19 18:49 34.570379 -114.361265 61 747ft 0kts
14-Sep-19 18:50 34.570379 -114.361265 61 747ft 0kts
14-Sep-19 18:51 34.570379 -114.361265 61 747ft 0kts
14-Sep-19 18:52 34.570379 -114.361265 61 747ft 0kts
14-Sep-19 18:53 34.570379 -114.361264 60 747ft 0kts
14-Sep-19 18:54 34.570379 -114.361264 61 747ft 0kts
14-Sep-19 18:55 34.570379 -114.361264 61 747ft 0kts
14-Sep-19 18:56 34.570379 -114.361264 61 747ft 0kts
14-Sep-19 18:57 34.570379 -114.361264 61 747ft 0kts
14-Sep-19 18:58 34.570379 -114.361264 61 747ft 0kts
14-Sep-19 18:59 34.570379 -114.361264 61 747ft 0kts
14-Sep-19 19:00 34.570379 -114.361264 61 747ft 0kts
14-Sep-19 19:01 34.570379 -114.361265 61 747ft 0kts
14-Sep-19 19:02 34.570379 -114.361265 61 747ft 0kts
14-Sep-19 19:03 34.570379 -114.361265 61 747ft 0kts
14-Sep-19 19:04 34.570379 -114.361265 61 747ft 0kts
14-Sep-19 19:05 34.570379 -114.361265 61 747ft 0kts
14-Sep-19 19:06 34.570379 -114.361265 61 747ft 0kts
14-Sep-19 19:07 34.570379 -114.361265 61 747ft 0kts
14-Sep-19 19:08 34.570379 -114.361265 61 747ft 0kts
14-Sep-19 19:09 34.570379 -114.361265 61 747ft 0kts
14-Sep-19 19:10 34.570379 -114.361265 61 747ft 0kts
14-Sep-19 19:11 34.570379 -114.361265 61 747ft 0kts
14-Sep-19 19:12 34.570379 -114.361265 61 747ft 0kts
14-Sep-19 19:13 34.570379 -114.361265 61 747ft 0kts
14-Sep-19 19:14 34.570782 -114.361252 318 748ft 7kts
14-Sep-19 19:15 34.572267 -114.360412 333 753ft 4kts
14-Sep-19 19:16 34.574542 -114.362008 328 755ft 12kts
14-Sep-19 19:17 34.578020 -114.364513 329 755ft 16kts
14-Sep-19 19:18 34.580162 -114.365774 39 756ft 0kts
14-Sep-19 19:19 34.580162 -114.365774 39 756ft 0kts
14-Sep-19 19:20 34.580162 -114.365774 39 756ft 0kts
14-Sep-19 19:21 34.580162 -114.365774 39 756ft 0kts
14-Sep-19 19:22 34.580162 -114.365774 39 756ft 0kts
14-Sep-19 19:23 34.580162 -114.365774 39 756ft 0kts
14-Sep-19 19:24 34.576571 -114.362176 148 756ft 97kts
14-Sep-19 19:25 34.545455 -114.348550 203 2131ft 124kts
14-Sep-19 19:26 34.538905 -114.386623 308 3129ft 153kts
14-Sep-19 19:27 34.567481 -114.423485 312 4318ft 147kts
14-Sep-19 19:28 34.604814 -114.439466 348 5504ft 144kts
14-Sep-19 19:29 34.643605 -114.447221 349 6658ft 140kts
14-Sep-19 19:30 34.683077 -114.456265 349 7629ft 142kts
14-Sep-19 19:31 34.721894 -114.463388 350 8590ft 142kts
14-Sep-19 19:32 34.760173 -114.472756 347 9484ft 137kts
14-Sep-19 19:33 34.772874 -114.504572 228 10049ft 140kts
14-Sep-19 19:34 34.740912 -114.540756 221 10040ft 168kts
14-Sep-19 19:35 34.705377 -114.579747 221 10037ft 175kts
14-Sep-19 19:36 34.670069 -114.620858 228 10037ft 177kts
14-Sep-19 19:37 34.639093 -114.666476 229 10037ft 177kts
14-Sep-19 19:38 34.608225 -114.713080 229 10037ft 177kts
14-Sep-19 19:39 34.577252 -114.759713 230 10037ft 178kts
14-Sep-19 19:40 34.546216 -114.806423 230 10036ft 178kts
14-Sep-19 19:41 34.515049 -114.853234 230 10036ft 178kts
14-Sep-19 19:42 34.483985 -114.899822 229 10036ft 178kts
14-Sep-19 19:43 34.452552 -114.947004 230 9888ft 183kts
14-Sep-19 19:44 34.420912 -114.994290 230 9880ft 179kts
14-Sep-19 19:45 34.389644 -115.041014 230 9880ft 178kts
14-Sep-19 19:46 34.358405 -115.087665 230 9881ft 179kts
14-Sep-19 19:47 34.327038 -115.134403 230 9880ft 179kts
14-Sep-19 19:48 34.295615 -115.181171 230 9880ft 179kts
14-Sep-19 19:49 34.264218 -115.227823 230 9881ft 179kts
14-Sep-19 19:50 34.232843 -115.274384 230 9978ft 175kts
14-Sep-19 19:51 34.201744 -115.320500 230 10009ft 178kts
14-Sep-19 19:52 34.170352 -115.367024 230 10008ft 179kts
14-Sep-19 19:53 34.138729 -115.413789 230 10008ft 180kts
14-Sep-19 19:54 34.107016 -115.460621 230 10008ft 180kts
14-Sep-19 19:55 34.075319 -115.507373 230 10008ft 180kts
14-Sep-19 19:56 34.043613 -115.554082 230 10008ft 180kts
14-Sep-19 19:57 34.011972 -115.600617 230 10008ft 180kts
14-Sep-19 19:58 33.980115 -115.647433 230 10008ft 180kts
14-Sep-19 19:59 33.948777 -115.693407 230 10008ft 181kts
14-Sep-19 20:00 33.917237 -115.741994 247 9816ft 185kts
14-Sep-19 20:01 33.911442 -115.802848 265 9816ft 182kts
14-Sep-19 20:02 33.907805 -115.863666 265 9816ft 182kts
14-Sep-19 20:03 33.903827 -115.924408 261 9815ft 182kts
14-Sep-19 20:04 33.869571 -115.966641 214 9553ft 193kts
14-Sep-19 20:05 33.817822 -115.983600 201 8757ft 195kts
14-Sep-19 20:06 33.772194 -116.020652 219 7215ft 200kts
14-Sep-19 20:07 33.730595 -116.061127 219 5442ft 182kts
14-Sep-19 20:08 33.704655 -116.086681 214 5760ft 86kts
14-Sep-19 20:09 33.680917 -116.107362 215 5059ft 147kts
14-Sep-19 20:10 33.642841 -116.115606 190 5266ft 173kts
14-Sep-19 20:11 33.606200 -116.096337 128 5299ft 130kts
14-Sep-19 20:13 33.588608 -116.108447 305 4444ft 139kts
14-Sep-19 20:14 33.614621 -116.137511 314 3875ft 121kts
14-Sep-19 20:15 33.636105 -116.169504 302 3645ft 131kts
14-Sep-19 20:16 33.656691 -116.206608 302 3207ft 133kts
14-Sep-19 20:17 33.675624 -116.243051 301 2913ft 126kts
14-Sep-19 20:18 33.693035 -116.276332 301 2953ft 111kts
14-Sep-19 20:19 33.709614 -116.307894 301 2954ft 113kts
14-Sep-19 20:20 33.728393 -116.336651 308 2954ft 105kts
14-Sep-19 20:21 33.746546 -116.363289 308 3014ft 100kts
14-Sep-19 20:22 33.764495 -116.390017 303 3017ft 103kts
14-Sep-19 20:23 33.777440 -116.421996 290 2515ft 106kts
14-Sep-19 20:24 33.787434 -116.455840 291 1397ft 108kts
14-Sep-19 20:25 33.803772 -116.482023 324 777ft 94kts
14-Sep-19 20:26 33.824741 -116.500409 324 409ft 82kts
14-Sep-19 20:27 33.829921 -116.504557 43 419ft 0kts
14-Sep-19 20:28 33.829927 -116.504550 45 419ft 0kts
14-Sep-19 20:28 33.829927 -116.504550 45 419ft 0kts
14-Sep-19 20:30 33.827866 -116.502256 143 412ft 18kts
14-Sep-19 20:31 33.823990 -116.498547 137 399ft 11kts
14-Sep-19 20:32 33.823712 -116.498620 45 398ft 0kts
14-Sep-19 20:32 33.823712 -116.498620 45 398ft 0kts
14-Sep-19 20:34 33.823712 -116.498620 45 398ft 0kts
14-Sep-19 20:35 33.823712 -116.498620 45 398ft 0kts
14-Sep-19 20:35 33.823712 -116.498620 45 398ft 0kts
14-Sep-19 20:36 33.823712 -116.498620 45 398ft 0kts
14-Sep-19 20:38 33.823712 -116.498620 45 398ft 0kts
14-Sep-19 20:38 33.823712 -116.498620 45 398ft 0kts
14-Sep-19 20:39 33.823712 -116.498620 45 398ft 0kts
14-Sep-19 20:40 33.823712 -116.498620 45 398ft 0kts

Navigation Log

Ident Type
Flight plan parsing failed, navigation log unavailable